메인 페이지
METAR-TAF:

METAR-TAF

공항 :

오펏 공군 기지

오마하, 네브래스카, 미국

위도: 41-07N, 경도: 095-54W, 고도: 319m

현재 날씨관측

예보는 23분 전, 13:39시(UTC)에 발표되었습니다.
남남동3kt
온도 12°C
습도 100%
기압 1006 hPa
시정: 0.8km
고도 200ft 상공 흐림
안개

METAR: KOFF 071339Z 15003KT 1/2SM R12/2800V4500FT FG OVC002 12/12 A2972 RMK AO2A SLP067 $

시각: 09:02 (14:02 UTC)

예보

예보는 2 시간 20분 전, 11:42시(UTC)에 발표되었습니다.
예보 대상 시간: 07일 11시부터 08일 16시까지 (UTC)
여러 방향의 바람 5kt
시정: 0400m
고도 100ft 미만 상공 구름 많음
안개
전환 중
07일 14시부터 07일 15시까지 (UTC)
여러 방향의 바람 5kt
시정 10km 이상
맑음
전환 중
07일 20시부터 07일 21시까지 (UTC)
서북서10kt, 순간 최대 풍속 15kt
시정 10km 이상
맑음
전환 중
07일 23시부터 07일 24시까지 (UTC)
여러 방향의 바람 5kt
시정 10km 이상
맑음

TAF: KOFF 071142Z 0711/0816 VRB05KT 0400 FG BKN000 QNH2968INS BECMG 0714/0715 VRB05KT 9999 NSW SKC QNH2971INS BECMG 0720/0721 30010G15KT 9999 SKC QNH2969INS BECMG 0723/0724 VRB05KT 9999 SKC QNH2971INS TX24/0720Z TN11/0810Z

4,000개 이상의 공항 관측 자료 및 예보 (METAR 및 TAF 보고).

지도상에서 검색 가능한 기상관측소가 노란 점과 빨간 점으로 표시되어 있습니다.

기상관측소 명을 보려면 표시 위로 마우스를 이동하세요.

날씨 관측과 예보를 보려면 클릭하세요.

지도 변경 : 확대하려면 엑스 표시가 있는 녹색 버튼, 축소하려면 빼기 표시가 있는 녹색 버튼, 다음 페이지의 지도를 보려면 녹색 화살표를 클릭하세요.


METAR-TAF: